sensor_id;sensor_type;location;lat;lon;timestamp;P1;durP1;ratioP1;P2;durP2;ratioP2
49193;SDS011;35029;50.804;12.866;2024-03-02T00:00:23;37.13;;;28.15;;
49193;SDS011;35029;50.804;12.866;2024-03-02T00:02:50;41.35;;;28.42;;
49193;SDS011;35029;50.804;12.866;2024-03-02T00:05:18;42.47;;;29.75;;
49193;SDS011;35029;50.804;12.866;2024-03-02T00:07:47;39.63;;;27.67;;
49193;SDS011;35029;50.804;12.866;2024-03-02T00:10:21;45.60;;;31.60;;
49193;SDS011;35029;50.804;12.866;2024-03-02T00:12:54;42.83;;;29.42;;
49193;SDS011;35029;50.804;12.866;2024-03-02T00:18:21;43.10;;;29.65;;
49193;SDS011;35029;50.804;12.866;2024-03-02T00:20:54;41.83;;;28.48;;
49193;SDS011;35029;50.804;12.866;2024-03-02T00:23:23;39.15;;;28.33;;
49193;SDS011;35029;50.804;12.866;2024-03-02T00:25:50;38.33;;;27.77;;
49193;SDS011;35029;50.804;12.866;2024-03-02T00:33:30;38.83;;;26.48;;
49193;SDS011;35029;50.804;12.866;2024-03-02T00:35:58;44.00;;;27.95;;
49193;SDS011;35029;50.804;12.866;2024-03-02T00:38:25;40.85;;;28.00;;
49193;SDS011;35029;50.804;12.866;2024-03-02T00:40:51;46.58;;;32.50;;
49193;SDS011;35029;50.804;12.866;2024-03-02T00:45:49;38.22;;;26.77;;
49193;SDS011;35029;50.804;12.866;2024-03-02T00:48:15;43.13;;;28.48;;
49193;SDS011;35029;50.804;12.866;2024-03-02T00:50:41;40.03;;;28.02;;
49193;SDS011;35029;50.804;12.866;2024-03-02T00:53:09;37.17;;;26.77;;
49193;SDS011;35029;50.804;12.866;2024-03-02T00:55:37;39.80;;;28.63;;
49193;SDS011;35029;50.804;12.866;2024-03-02T00:58:04;38.95;;;26.42;;
49193;SDS011;35029;50.804;12.866;2024-03-02T01:00:30;37.03;;;26.08;;
49193;SDS011;35029;50.804;12.866;2024-03-02T01:02:58;46.85;;;30.98;;
49193;SDS011;35029;50.804;12.866;2024-03-02T01:05:24;43.95;;;30.20;;
49193;SDS011;35029;50.804;12.866;2024-03-02T01:07:50;42.45;;;29.33;;
49193;SDS011;35029;50.804;12.866;2024-03-02T01:10:16;38.08;;;27.08;;
49193;SDS011;35029;50.804;12.866;2024-03-02T01:12:41;36.92;;;25.75;;
49193;SDS011;35029;50.804;12.866;2024-03-02T01:15:07;37.22;;;26.63;;
49193;SDS011;35029;50.804;12.866;2024-03-02T01:17:33;38.90;;;26.92;;
49193;SDS011;35029;50.804;12.866;2024-03-02T01:19:58;34.92;;;25.80;;
49193;SDS011;35029;50.804;12.866;2024-03-02T01:22:25;40.58;;;28.30;;
49193;SDS011;35029;50.804;12.866;2024-03-02T01:24:51;35.05;;;25.55;;
49193;SDS011;35029;50.804;12.866;2024-03-02T01:27:16;39.50;;;27.30;;
49193;SDS011;35029;50.804;12.866;2024-03-02T01:29:42;38.95;;;26.67;;
49193;SDS011;35029;50.804;12.866;2024-03-02T01:32:07;39.10;;;26.48;;
49193;SDS011;35029;50.804;12.866;2024-03-02T01:34:33;36.35;;;26.73;;
49193;SDS011;35029;50.804;12.866;2024-03-02T01:36:59;36.60;;;26.25;;
49193;SDS011;35029;50.804;12.866;2024-03-02T01:39:24;35.90;;;25.75;;
49193;SDS011;35029;50.804;12.866;2024-03-02T01:41:50;36.10;;;25.45;;
49193;SDS011;35029;50.804;12.866;2024-03-02T01:44:15;37.35;;;24.55;;
49193;SDS011;35029;50.804;12.866;2024-03-02T01:46:41;43.97;;;25.40;;
49193;SDS011;35029;50.804;12.866;2024-03-02T01:49:07;35.60;;;25.27;;
49193;SDS011;35029;50.804;12.866;2024-03-02T01:51:32;36.58;;;26.00;;
49193;SDS011;35029;50.804;12.866;2024-03-02T01:53:58;35.00;;;25.10;;
49193;SDS011;35029;50.804;12.866;2024-03-02T01:56:23;35.08;;;24.88;;
49193;SDS011;35029;50.804;12.866;2024-03-02T01:58:49;35.90;;;24.83;;
49193;SDS011;35029;50.804;12.866;2024-03-02T02:01:15;34.58;;;24.23;;
49193;SDS011;35029;50.804;12.866;2024-03-02T02:03:41;31.77;;;23.40;;
49193;SDS011;35029;50.804;12.866;2024-03-02T02:06:08;39.45;;;26.80;;
49193;SDS011;35029;50.804;12.866;2024-03-02T02:08:36;34.30;;;25.35;;
49193;SDS011;35029;50.804;12.866;2024-03-02T02:11:02;32.72;;;24.60;;
49193;SDS011;35029;50.804;12.866;2024-03-02T02:13:28;31.30;;;23.13;;
49193;SDS011;35029;50.804;12.866;2024-03-02T02:15:53;43.22;;;29.05;;
49193;SDS011;35029;50.804;12.866;2024-03-02T02:18:19;37.53;;;27.30;;
49193;SDS011;35029;50.804;12.866;2024-03-02T02:20:45;34.10;;;25.55;;
49193;SDS011;35029;50.804;12.866;2024-03-02T02:23:10;33.08;;;24.02;;
49193;SDS011;35029;50.804;12.866;2024-03-02T02:25:36;34.28;;;24.38;;
49193;SDS011;35029;50.804;12.866;2024-03-02T02:28:01;37.53;;;26.25;;
49193;SDS011;35029;50.804;12.866;2024-03-02T02:30:29;35.97;;;27.40;;
49193;SDS011;35029;50.804;12.866;2024-03-02T02:32:57;37.17;;;26.35;;
49193;SDS011;35029;50.804;12.866;2024-03-02T02:35:23;35.58;;;26.10;;
49193;SDS011;35029;50.804;12.866;2024-03-02T02:37:53;40.13;;;27.70;;
49193;SDS011;35029;50.804;12.866;2024-03-02T02:40:20;38.65;;;27.45;;
49193;SDS011;35029;50.804;12.866;2024-03-02T02:42:46;35.60;;;24.30;;
49193;SDS011;35029;50.804;12.866;2024-03-02T02:45:12;34.22;;;24.23;;
49193;SDS011;35029;50.804;12.866;2024-03-02T02:47:40;31.67;;;22.95;;
49193;SDS011;35029;50.804;12.866;2024-03-02T02:50:07;34.28;;;23.80;;
49193;SDS011;35029;50.804;12.866;2024-03-02T02:52:34;33.63;;;24.90;;
49193;SDS011;35029;50.804;12.866;2024-03-02T02:55:06;31.33;;;22.77;;
49193;SDS011;35029;50.804;12.866;2024-03-02T02:57:33;32.20;;;22.73;;
49193;SDS011;35029;50.804;12.866;2024-03-02T03:00:10;37.05;;;26.17;;
49193;SDS011;35029;50.804;12.866;2024-03-02T03:02:44;37.47;;;26.52;;
49193;SDS011;35029;50.804;12.866;2024-03-02T03:05:14;34.08;;;24.75;;
49193;SDS011;35029;50.804;12.866;2024-03-02T03:07:42;32.53;;;25.33;;
49193;SDS011;35029;50.804;12.866;2024-03-02T03:10:09;34.58;;;24.30;;
49193;SDS011;35029;50.804;12.866;2024-03-02T03:12:35;30.77;;;22.83;;
49193;SDS011;35029;50.804;12.866;2024-03-02T03:15:02;32.42;;;21.98;;
49193;SDS011;35029;50.804;12.866;2024-03-02T03:17:31;29.67;;;22.08;;
49193;SDS011;35029;50.804;12.866;2024-03-02T03:19:57;34.47;;;24.27;;
49193;SDS011;35029;50.804;12.866;2024-03-02T03:22:22;31.67;;;22.55;;
49193;SDS011;35029;50.804;12.866;2024-03-02T03:24:48;29.45;;;20.88;;
49193;SDS011;35029;50.804;12.866;2024-03-02T03:27:14;29.63;;;21.52;;
49193;SDS011;35029;50.804;12.866;2024-03-02T03:29:39;30.02;;;22.50;;
49193;SDS011;35029;50.804;12.866;2024-03-02T03:32:05;31.52;;;22.67;;
49193;SDS011;35029;50.804;12.866;2024-03-02T03:34:32;30.50;;;21.98;;
49193;SDS011;35029;50.804;12.866;2024-03-02T03:36:58;30.83;;;22.23;;
49193;SDS011;35029;50.804;12.866;2024-03-02T03:39:24;31.20;;;22.77;;
49193;SDS011;35029;50.804;12.866;2024-03-02T03:41:49;35.20;;;24.55;;
49193;SDS011;35029;50.804;12.866;2024-03-02T03:44:15;32.92;;;23.67;;
49193;SDS011;35029;50.804;12.866;2024-03-02T03:46:41;32.45;;;23.92;;
49193;SDS011;35029;50.804;12.866;2024-03-02T03:49:07;34.05;;;23.70;;
49193;SDS011;35029;50.804;12.866;2024-03-02T03:51:34;32.80;;;22.10;;
49193;SDS011;35029;50.804;12.866;2024-03-02T03:54:00;30.13;;;22.25;;
49193;SDS011;35029;50.804;12.866;2024-03-02T03:56:26;35.25;;;23.33;;
49193;SDS011;35029;50.804;12.866;2024-03-02T03:58:52;32.00;;;22.58;;
49193;SDS011;35029;50.804;12.866;2024-03-02T04:01:17;33.15;;;23.17;;
49193;SDS011;35029;50.804;12.866;2024-03-02T04:03:43;31.30;;;22.92;;
49193;SDS011;35029;50.804;12.866;2024-03-02T04:06:09;34.67;;;23.27;;
49193;SDS011;35029;50.804;12.866;2024-03-02T04:08:34;34.60;;;24.60;;
49193;SDS011;35029;50.804;12.866;2024-03-02T04:11:00;34.90;;;24.73;;
49193;SDS011;35029;50.804;12.866;2024-03-02T04:13:25;35.45;;;24.33;;
49193;SDS011;35029;50.804;12.866;2024-03-02T04:15:51;33.22;;;23.73;;
49193;SDS011;35029;50.804;12.866;2024-03-02T04:18:16;31.13;;;21.70;;
49193;SDS011;35029;50.804;12.866;2024-03-02T04:20:42;34.05;;;22.90;;
49193;SDS011;35029;50.804;12.866;2024-03-02T04:23:07;32.38;;;22.35;;
49193;SDS011;35029;50.804;12.866;2024-03-02T04:25:33;30.10;;;21.73;;
49193;SDS011;35029;50.804;12.866;2024-03-02T04:27:59;29.48;;;21.70;;
49193;SDS011;35029;50.804;12.866;2024-03-02T04:30:24;30.48;;;21.48;;
49193;SDS011;35029;50.804;12.866;2024-03-02T04:32:50;29.23;;;21.45;;
49193;SDS011;35029;50.804;12.866;2024-03-02T04:35:16;33.47;;;24.02;;
49193;SDS011;35029;50.804;12.866;2024-03-02T04:37:41;37.78;;;25.77;;
49193;SDS011;35029;50.804;12.866;2024-03-02T04:40:07;32.83;;;22.20;;
49193;SDS011;35029;50.804;12.866;2024-03-02T04:42:34;31.52;;;22.52;;
49193;SDS011;35029;50.804;12.866;2024-03-02T04:45:00;32.47;;;22.23;;
49193;SDS011;35029;50.804;12.866;2024-03-02T04:47:26;31.27;;;21.48;;
49193;SDS011;35029;50.804;12.866;2024-03-02T04:49:52;28.63;;;21.60;;
49193;SDS011;35029;50.804;12.866;2024-03-02T04:52:17;33.92;;;22.30;;
49193;SDS011;35029;50.804;12.866;2024-03-02T04:54:43;31.60;;;22.50;;
49193;SDS011;35029;50.804;12.866;2024-03-02T04:57:41;33.22;;;22.55;;
49193;SDS011;35029;50.804;12.866;2024-03-02T05:00:07;27.70;;;21.73;;
49193;SDS011;35029;50.804;12.866;2024-03-02T05:02:34;29.55;;;23.05;;
49193;SDS011;35029;50.804;12.866;2024-03-02T05:04:59;29.58;;;22.33;;
49193;SDS011;35029;50.804;12.866;2024-03-02T05:07:25;33.80;;;23.20;;
49193;SDS011;35029;50.804;12.866;2024-03-02T05:09:51;30.95;;;22.15;;
49193;SDS011;35029;50.804;12.866;2024-03-02T05:12:17;30.60;;;23.05;;
49193;SDS011;35029;50.804;12.866;2024-03-02T05:15:00;34.15;;;23.25;;
49193;SDS011;35029;50.804;12.866;2024-03-02T05:17:27;27.33;;;19.92;;
49193;SDS011;35029;50.804;12.866;2024-03-02T05:19:53;29.98;;;21.58;;
49193;SDS011;35029;50.804;12.866;2024-03-02T05:22:18;28.33;;;20.55;;
49193;SDS011;35029;50.804;12.866;2024-03-02T05:24:44;31.35;;;23.00;;
49193;SDS011;35029;50.804;12.866;2024-03-02T05:27:10;30.17;;;21.58;;
49193;SDS011;35029;50.804;12.866;2024-03-02T05:29:35;41.00;;;26.05;;
49193;SDS011;35029;50.804;12.866;2024-03-02T05:32:01;35.33;;;24.27;;
49193;SDS011;35029;50.804;12.866;2024-03-02T05:34:26;35.60;;;24.27;;
49193;SDS011;35029;50.804;12.866;2024-03-02T05:36:52;31.45;;;22.40;;
49193;SDS011;35029;50.804;12.866;2024-03-02T05:39:18;32.08;;;22.00;;
49193;SDS011;35029;50.804;12.866;2024-03-02T05:41:44;30.13;;;21.88;;
49193;SDS011;35029;50.804;12.866;2024-03-02T05:44:09;27.20;;;20.83;;
49193;SDS011;35029;50.804;12.866;2024-03-02T05:46:35;30.98;;;22.63;;
49193;SDS011;35029;50.804;12.866;2024-03-02T05:49:00;28.15;;;21.08;;
49193;SDS011;35029;50.804;12.866;2024-03-02T05:51:26;29.08;;;21.15;;
49193;SDS011;35029;50.804;12.866;2024-03-02T05:53:52;28.27;;;20.95;;
49193;SDS011;35029;50.804;12.866;2024-03-02T05:56:17;30.02;;;21.48;;
49193;SDS011;35029;50.804;12.866;2024-03-02T05:58:43;29.33;;;20.08;;
49193;SDS011;35029;50.804;12.866;2024-03-02T06:01:17;24.38;;;19.38;;
49193;SDS011;35029;50.804;12.866;2024-03-02T06:03:43;28.63;;;20.73;;
49193;SDS011;35029;50.804;12.866;2024-03-02T06:06:09;26.65;;;21.00;;
49193;SDS011;35029;50.804;12.866;2024-03-02T06:08:35;26.45;;;19.75;;
49193;SDS011;35029;50.804;12.866;2024-03-02T06:11:00;29.05;;;20.92;;
49193;SDS011;35029;50.804;12.866;2024-03-02T06:13:26;28.25;;;21.50;;
49193;SDS011;35029;50.804;12.866;2024-03-02T06:15:52;27.73;;;20.60;;
49193;SDS011;35029;50.804;12.866;2024-03-02T06:18:18;26.80;;;21.10;;
49193;SDS011;35029;50.804;12.866;2024-03-02T06:20:43;29.17;;;21.50;;
49193;SDS011;35029;50.804;12.866;2024-03-02T06:23:09;26.83;;;19.88;;
49193;SDS011;35029;50.804;12.866;2024-03-02T06:25:35;29.17;;;21.15;;
49193;SDS011;35029;50.804;12.866;2024-03-02T06:28:00;30.52;;;20.67;;
49193;SDS011;35029;50.804;12.866;2024-03-02T06:30:26;29.70;;;20.77;;
49193;SDS011;35029;50.804;12.866;2024-03-02T06:32:52;27.00;;;19.80;;
49193;SDS011;35029;50.804;12.866;2024-03-02T06:35:18;26.88;;;19.00;;
49193;SDS011;35029;50.804;12.866;2024-03-02T06:37:44;25.08;;;19.25;;
49193;SDS011;35029;50.804;12.866;2024-03-02T06:40:10;26.48;;;19.20;;
49193;SDS011;35029;50.804;12.866;2024-03-02T06:42:35;23.88;;;18.38;;
49193;SDS011;35029;50.804;12.866;2024-03-02T06:45:02;22.48;;;17.52;;
49193;SDS011;35029;50.804;12.866;2024-03-02T06:47:28;23.63;;;18.35;;
49193;SDS011;35029;50.804;12.866;2024-03-02T06:49:54;23.75;;;17.98;;
49193;SDS011;35029;50.804;12.866;2024-03-02T06:52:20;22.70;;;18.35;;
49193;SDS011;35029;50.804;12.866;2024-03-02T06:54:46;21.42;;;17.45;;
49193;SDS011;35029;50.804;12.866;2024-03-02T06:57:11;25.08;;;19.30;;
49193;SDS011;35029;50.804;12.866;2024-03-02T06:59:37;23.60;;;18.13;;
49193;SDS011;35029;50.804;12.866;2024-03-02T07:02:02;24.30;;;19.70;;
49193;SDS011;35029;50.804;12.866;2024-03-02T07:04:28;26.98;;;19.55;;
49193;SDS011;35029;50.804;12.866;2024-03-02T07:06:54;28.35;;;21.08;;
49193;SDS011;35029;50.804;12.866;2024-03-02T07:09:20;29.27;;;19.83;;
49193;SDS011;35029;50.804;12.866;2024-03-02T07:11:48;27.50;;;21.85;;
49193;SDS011;35029;50.804;12.866;2024-03-02T07:14:14;28.60;;;22.30;;
49193;SDS011;35029;50.804;12.866;2024-03-02T07:16:43;30.35;;;22.90;;
49193;SDS011;35029;50.804;12.866;2024-03-02T07:19:09;27.95;;;21.02;;
49193;SDS011;35029;50.804;12.866;2024-03-02T07:21:34;34.00;;;23.13;;
49193;SDS011;35029;50.804;12.866;2024-03-02T07:24:00;30.58;;;22.85;;
49193;SDS011;35029;50.804;12.866;2024-03-02T07:26:28;28.45;;;23.00;;
49193;SDS011;35029;50.804;12.866;2024-03-02T07:28:56;34.70;;;23.58;;
49193;SDS011;35029;50.804;12.866;2024-03-02T07:31:22;32.60;;;23.73;;
49193;SDS011;35029;50.804;12.866;2024-03-02T07:33:49;30.00;;;22.33;;
49193;SDS011;35029;50.804;12.866;2024-03-02T07:36:15;28.50;;;22.00;;
49193;SDS011;35029;50.804;12.866;2024-03-02T07:38:40;28.88;;;21.73;;
49193;SDS011;35029;50.804;12.866;2024-03-02T07:41:07;30.15;;;21.75;;
49193;SDS011;35029;50.804;12.866;2024-03-02T07:43:34;26.10;;;20.00;;
49193;SDS011;35029;50.804;12.866;2024-03-02T07:45:59;29.65;;;21.73;;
49193;SDS011;35029;50.804;12.866;2024-03-02T07:48:26;30.90;;;21.75;;
49193;SDS011;35029;50.804;12.866;2024-03-02T07:50:52;29.75;;;21.33;;
49193;SDS011;35029;50.804;12.866;2024-03-02T07:53:18;32.28;;;23.33;;
49193;SDS011;35029;50.804;12.866;2024-03-02T07:55:44;30.80;;;21.27;;
49193;SDS011;35029;50.804;12.866;2024-03-02T07:58:10;30.50;;;21.65;;
49193;SDS011;35029;50.804;12.866;2024-03-02T08:00:38;30.73;;;21.23;;
49193;SDS011;35029;50.804;12.866;2024-03-02T08:03:05;30.20;;;20.52;;
49193;SDS011;35029;50.804;12.866;2024-03-02T08:05:31;29.77;;;21.00;;
49193;SDS011;35029;50.804;12.866;2024-03-02T08:07:57;28.92;;;20.15;;
49193;SDS011;35029;50.804;12.866;2024-03-02T08:10:23;30.85;;;21.55;;
49193;SDS011;35029;50.804;12.866;2024-03-02T08:12:54;30.67;;;20.55;;
49193;SDS011;35029;50.804;12.866;2024-03-02T08:15:19;30.63;;;21.02;;
49193;SDS011;35029;50.804;12.866;2024-03-02T08:17:46;26.73;;;19.75;;
49193;SDS011;35029;50.804;12.866;2024-03-02T08:20:14;31.08;;;20.67;;
49193;SDS011;35029;50.804;12.866;2024-03-02T08:22:40;31.95;;;21.88;;
49193;SDS011;35029;50.804;12.866;2024-03-02T08:25:06;30.42;;;22.65;;
49193;SDS011;35029;50.804;12.866;2024-03-02T08:27:33;31.05;;;22.85;;
49193;SDS011;35029;50.804;12.866;2024-03-02T08:29:59;31.05;;;21.55;;
49193;SDS011;35029;50.804;12.866;2024-03-02T08:32:24;29.80;;;21.77;;
49193;SDS011;35029;50.804;12.866;2024-03-02T08:34:50;33.97;;;22.35;;
49193;SDS011;35029;50.804;12.866;2024-03-02T08:37:15;32.55;;;22.70;;
49193;SDS011;35029;50.804;12.866;2024-03-02T08:39:41;33.33;;;22.23;;
49193;SDS011;35029;50.804;12.866;2024-03-02T08:42:06;33.05;;;22.67;;
49193;SDS011;35029;50.804;12.866;2024-03-02T08:44:32;27.85;;;20.77;;
49193;SDS011;35029;50.804;12.866;2024-03-02T08:46:58;32.72;;;22.08;;
49193;SDS011;35029;50.804;12.866;2024-03-02T08:49:24;28.23;;;20.77;;
49193;SDS011;35029;50.804;12.866;2024-03-02T08:51:50;30.85;;;21.52;;
49193;SDS011;35029;50.804;12.866;2024-03-02T08:54:22;30.77;;;21.02;;
49193;SDS011;35029;50.804;12.866;2024-03-02T08:56:49;31.65;;;21.80;;
49193;SDS011;35029;50.804;12.866;2024-03-02T08:59:15;32.40;;;21.38;;
49193;SDS011;35029;50.804;12.866;2024-03-02T09:01:41;27.45;;;19.73;;
49193;SDS011;35029;50.804;12.866;2024-03-02T09:04:10;33.20;;;21.42;;
49193;SDS011;35029;50.804;12.866;2024-03-02T09:06:35;32.45;;;22.05;;
49193;SDS011;35029;50.804;12.866;2024-03-02T09:09:02;28.25;;;19.35;;
49193;SDS011;35029;50.804;12.866;2024-03-02T09:11:28;30.23;;;20.77;;
49193;SDS011;35029;50.804;12.866;2024-03-02T09:13:53;29.88;;;20.40;;
49193;SDS011;35029;50.804;12.866;2024-03-02T09:16:21;31.13;;;20.38;;
49193;SDS011;35029;50.804;12.866;2024-03-02T09:18:46;28.90;;;19.35;;
49193;SDS011;35029;50.804;12.866;2024-03-02T09:21:12;24.40;;;18.25;;
49193;SDS011;35029;50.804;12.866;2024-03-02T09:23:40;26.58;;;18.40;;
49193;SDS011;35029;50.804;12.866;2024-03-02T09:26:05;25.65;;;19.15;;
49193;SDS011;35029;50.804;12.866;2024-03-02T09:28:31;32.95;;;20.60;;
49193;SDS011;35029;50.804;12.866;2024-03-02T09:30:57;29.52;;;20.20;;
49193;SDS011;35029;50.804;12.866;2024-03-02T09:33:22;23.73;;;17.60;;
49193;SDS011;35029;50.804;12.866;2024-03-02T09:35:48;25.60;;;18.15;;
49193;SDS011;35029;50.804;12.866;2024-03-02T09:38:14;25.35;;;18.75;;
49193;SDS011;35029;50.804;12.866;2024-03-02T09:40:40;28.13;;;18.80;;
49193;SDS011;35029;50.804;12.866;2024-03-02T09:43:07;26.35;;;19.58;;
49193;SDS011;35029;50.804;12.866;2024-03-02T09:45:35;21.88;;;17.90;;
49193;SDS011;35029;50.804;12.866;2024-03-02T09:48:02;25.17;;;19.08;;
49193;SDS011;35029;50.804;12.866;2024-03-02T09:50:28;27.10;;;18.45;;
49193;SDS011;35029;50.804;12.866;2024-03-02T09:52:53;25.67;;;18.10;;
49193;SDS011;35029;50.804;12.866;2024-03-02T09:55:19;27.60;;;19.42;;
49193;SDS011;35029;50.804;12.866;2024-03-02T09:57:47;24.23;;;18.05;;
49193;SDS011;35029;50.804;12.866;2024-03-02T10:00:19;24.15;;;17.30;;
49193;SDS011;35029;50.804;12.866;2024-03-02T10:02:51;24.50;;;17.23;;
49193;SDS011;35029;50.804;12.866;2024-03-02T10:05:24;25.02;;;17.40;;
49193;SDS011;35029;50.804;12.866;2024-03-02T10:08:03;22.35;;;16.52;;
49193;SDS011;35029;50.804;12.866;2024-03-02T10:10:34;20.70;;;16.27;;
49193;SDS011;35029;50.804;12.866;2024-03-02T10:13:07;24.33;;;16.52;;
49193;SDS011;35029;50.804;12.866;2024-03-02T10:15:41;19.95;;;14.98;;
49193;SDS011;35029;50.804;12.866;2024-03-02T10:18:37;19.45;;;14.40;;
49193;SDS011;35029;50.804;12.866;2024-03-02T10:21:45;22.85;;;15.13;;
49193;SDS011;35029;50.804;12.866;2024-03-02T10:24:39;19.92;;;14.35;;
49193;SDS011;35029;50.804;12.866;2024-03-02T10:27:27;24.38;;;15.23;;
49193;SDS011;35029;50.804;12.866;2024-03-02T10:30:17;16.45;;;11.75;;
49193;SDS011;35029;50.804;12.866;2024-03-02T10:33:05;18.42;;;13.88;;
49193;SDS011;35029;50.804;12.866;2024-03-02T10:35:54;17.87;;;13.17;;
49193;SDS011;35029;50.804;12.866;2024-03-02T10:38:26;20.27;;;14.20;;
49193;SDS011;35029;50.804;12.866;2024-03-02T10:41:26;20.02;;;12.85;;
49193;SDS011;35029;50.804;12.866;2024-03-02T10:44:04;16.20;;;12.30;;
49193;SDS011;35029;50.804;12.866;2024-03-02T10:47:03;17.17;;;13.13;;
49193;SDS011;35029;50.804;12.866;2024-03-02T10:50:06;17.58;;;11.25;;
49193;SDS011;35029;50.804;12.866;2024-03-02T10:52:59;14.57;;;10.65;;
49193;SDS011;35029;50.804;12.866;2024-03-02T10:55:58;13.68;;;10.65;;
49193;SDS011;35029;50.804;12.866;2024-03-02T10:59:33;14.73;;;10.55;;
49193;SDS011;35029;50.804;12.866;2024-03-02T11:02:17;13.23;;;10.80;;
49193;SDS011;35029;50.804;12.866;2024-03-02T11:05:26;11.73;;;9.02;;
49193;SDS011;35029;50.804;12.866;2024-03-02T11:08:20;11.55;;;8.75;;
49193;SDS011;35029;50.804;12.866;2024-03-02T11:11:13;12.05;;;9.07;;
49193;SDS011;35029;50.804;12.866;2024-03-02T11:13:40;13.40;;;9.68;;
49193;SDS011;35029;50.804;12.866;2024-03-02T11:16:16;13.00;;;9.73;;
49193;SDS011;35029;50.804;12.866;2024-03-02T11:18:54;10.38;;;8.20;;
49193;SDS011;35029;50.804;12.866;2024-03-02T11:21:20;12.88;;;9.30;;
49193;SDS011;35029;50.804;12.866;2024-03-02T11:23:46;10.63;;;7.65;;
49193;SDS011;35029;50.804;12.866;2024-03-02T11:26:18;12.00;;;7.97;;
49193;SDS011;35029;50.804;12.866;2024-03-02T11:28:45;8.68;;;6.72;;
49193;SDS011;35029;50.804;12.866;2024-03-02T11:31:11;8.82;;;6.82;;
49193;SDS011;35029;50.804;12.866;2024-03-02T11:33:36;8.82;;;7.10;;
49193;SDS011;35029;50.804;12.866;2024-03-02T11:36:02;9.90;;;6.93;;
49193;SDS011;35029;50.804;12.866;2024-03-02T11:38:29;9.80;;;6.57;;
49193;SDS011;35029;50.804;12.866;2024-03-02T11:40:58;9.95;;;6.82;;
49193;SDS011;35029;50.804;12.866;2024-03-02T11:43:25;11.75;;;7.35;;
49193;SDS011;35029;50.804;12.866;2024-03-02T11:45:56;10.00;;;7.50;;
49193;SDS011;35029;50.804;12.866;2024-03-02T11:48:23;9.40;;;6.65;;
49193;SDS011;35029;50.804;12.866;2024-03-02T11:50:50;13.93;;;7.20;;
49193;SDS011;35029;50.804;12.866;2024-03-02T11:53:16;13.18;;;8.10;;
49193;SDS011;35029;50.804;12.866;2024-03-02T11:55:43;13.68;;;7.43;;
49193;SDS011;35029;50.804;12.866;2024-03-02T11:58:12;9.82;;;6.82;;
49193;SDS011;35029;50.804;12.866;2024-03-02T12:00:38;12.20;;;8.07;;
49193;SDS011;35029;50.804;12.866;2024-03-02T12:03:05;8.38;;;7.05;;
49193;SDS011;35029;50.804;12.866;2024-03-02T12:05:32;12.05;;;5.50;;
49193;SDS011;35029;50.804;12.866;2024-03-02T12:08:07;10.00;;;6.30;;
49193;SDS011;35029;50.804;12.866;2024-03-02T12:10:34;13.75;;;6.10;;
49193;SDS011;35029;50.804;12.866;2024-03-02T12:13:02;21.65;;;7.45;;
49193;SDS011;35029;50.804;12.866;2024-03-02T12:15:29;19.58;;;7.47;;
49193;SDS011;35029;50.804;12.866;2024-03-02T12:18:00;19.45;;;7.70;;
49193;SDS011;35029;50.804;12.866;2024-03-02T12:20:27;20.75;;;7.50;;
49193;SDS011;35029;50.804;12.866;2024-03-02T12:22:55;15.50;;;7.13;;
49193;SDS011;35029;50.804;12.866;2024-03-02T12:25:23;22.00;;;6.97;;
49193;SDS011;35029;50.804;12.866;2024-03-02T12:27:56;17.88;;;6.90;;
49193;SDS011;35029;50.804;12.866;2024-03-02T12:30:23;16.80;;;6.55;;
49193;SDS011;35029;50.804;12.866;2024-03-02T12:32:50;11.52;;;5.57;;
49193;SDS011;35029;50.804;12.866;2024-03-02T12:35:15;21.15;;;6.65;;
49193;SDS011;35029;50.804;12.866;2024-03-02T12:37:42;14.15;;;6.07;;
49193;SDS011;35029;50.804;12.866;2024-03-02T12:40:10;16.45;;;7.45;;
49193;SDS011;35029;50.804;12.866;2024-03-02T12:42:37;14.32;;;8.13;;
49193;SDS011;35029;50.804;12.866;2024-03-02T12:45:02;14.75;;;7.75;;
49193;SDS011;35029;50.804;12.866;2024-03-02T12:47:29;16.33;;;6.38;;
49193;SDS011;35029;50.804;12.866;2024-03-02T12:49:54;11.90;;;6.53;;
49193;SDS011;35029;50.804;12.866;2024-03-02T12:52:21;13.82;;;6.78;;
49193;SDS011;35029;50.804;12.866;2024-03-02T12:54:47;12.52;;;6.68;;
49193;SDS011;35029;50.804;12.866;2024-03-02T12:57:19;15.52;;;6.90;;
49193;SDS011;35029;50.804;12.866;2024-03-02T12:59:45;21.00;;;7.03;;
49193;SDS011;35029;50.804;12.866;2024-03-02T13:02:16;9.98;;;6.35;;
49193;SDS011;35029;50.804;12.866;2024-03-02T13:04:42;15.88;;;6.90;;
49193;SDS011;35029;50.804;12.866;2024-03-02T13:07:08;11.30;;;6.28;;
49193;SDS011;35029;50.804;12.866;2024-03-02T13:09:34;11.57;;;6.43;;
49193;SDS011;35029;50.804;12.866;2024-03-02T13:12:00;10.90;;;5.70;;
49193;SDS011;35029;50.804;12.866;2024-03-02T13:14:26;13.77;;;5.75;;
49193;SDS011;35029;50.804;12.866;2024-03-02T13:16:51;10.93;;;5.70;;
49193;SDS011;35029;50.804;12.866;2024-03-02T13:19:18;10.05;;;5.75;;
49193;SDS011;35029;50.804;12.866;2024-03-02T13:21:47;7.55;;;4.75;;
49193;SDS011;35029;50.804;12.866;2024-03-02T13:24:13;8.75;;;4.88;;
49193;SDS011;35029;50.804;12.866;2024-03-02T13:26:38;6.82;;;3.53;;
49193;SDS011;35029;50.804;12.866;2024-03-02T13:29:05;9.68;;;4.32;;
49193;SDS011;35029;50.804;12.866;2024-03-02T13:31:30;10.25;;;4.82;;
49193;SDS011;35029;50.804;12.866;2024-03-02T13:33:56;8.65;;;5.05;;
49193;SDS011;35029;50.804;12.866;2024-03-02T13:36:22;9.25;;;5.57;;
49193;SDS011;35029;50.804;12.866;2024-03-02T13:38:47;10.90;;;6.03;;
49193;SDS011;35029;50.804;12.866;2024-03-02T13:41:13;11.00;;;6.10;;
49193;SDS011;35029;50.804;12.866;2024-03-02T13:43:38;9.77;;;7.10;;
49193;SDS011;35029;50.804;12.866;2024-03-02T13:46:05;11.43;;;7.85;;
49193;SDS011;35029;50.804;12.866;2024-03-02T13:48:31;11.85;;;7.93;;
49193;SDS011;35029;50.804;12.866;2024-03-02T13:50:57;14.35;;;9.00;;
49193;SDS011;35029;50.804;12.866;2024-03-02T13:53:23;12.35;;;8.18;;
49193;SDS011;35029;50.804;12.866;2024-03-02T13:55:49;10.25;;;7.07;;
49193;SDS011;35029;50.804;12.866;2024-03-02T13:58:14;11.48;;;7.70;;
49193;SDS011;35029;50.804;12.866;2024-03-02T14:00:40;12.38;;;7.57;;
49193;SDS011;35029;50.804;12.866;2024-03-02T14:03:07;10.27;;;7.68;;
49193;SDS011;35029;50.804;12.866;2024-03-02T14:05:32;10.73;;;7.55;;
49193;SDS011;35029;50.804;12.866;2024-03-02T14:07:58;9.07;;;6.60;;
49193;SDS011;35029;50.804;12.866;2024-03-02T14:10:25;11.43;;;6.88;;
49193;SDS011;35029;50.804;12.866;2024-03-02T14:12:52;11.52;;;7.55;;
49193;SDS011;35029;50.804;12.866;2024-03-02T14:15:18;10.13;;;7.32;;
49193;SDS011;35029;50.804;12.866;2024-03-02T14:17:43;12.52;;;7.68;;
49193;SDS011;35029;50.804;12.866;2024-03-02T14:20:09;9.10;;;7.00;;
49193;SDS011;35029;50.804;12.866;2024-03-02T14:22:37;12.10;;;7.50;;
49193;SDS011;35029;50.804;12.866;2024-03-02T14:25:03;8.20;;;6.40;;
49193;SDS011;35029;50.804;12.866;2024-03-02T14:27:29;11.75;;;7.63;;
49193;SDS011;35029;50.804;12.866;2024-03-02T14:29:56;9.40;;;7.57;;